Pagrindinis puslapis
METAR-TAF:

METAR-TAF

Oro uostai :

Monrealis-Mirabel, Kvebekas, Kanada

platuma: 45-41N, ilguma: 074-02W, Aukštis: 82 m

Dabartinis oras

Ataskaita buvo paskelbta 26 minutes, ne 07:00 UTC
Vėjas 10 kt iš Vakarų/Pietvakarių su gūsio iki 17 kt
Temperatūra -9°C
Drėgmė 73%
Slėgis 996 hPa
Matomumas: 16.1 km
Apsiniaukę ne aukštis 4200 ft
Sniego pustymas pažeme

METAR: CYMX 280700Z 25010G17KT 10SM DRSN OVC042 M09/M13 A2941 RMK SC8 OCNL -SHSN SLP965

Laikas: 02:26 (07:26 UTC)

Prognozė

Ataskaita buvo paskelbta 1 valandą ir 48 minutes, ne 05:38 UTC
Prognozė galioja nuo 28 metu 06 UTC su 29 metu 06 UTC
Vėjas 12 kt iš Vakarų su gūsio iki 22 kt
Matomumas: 10 km
Su prošvaistėmis ne aukštis 3000 ft
Laikinai
nuo 28 metu 06 UTC su 28 metu 08 UTC
Matomumas: 8.0 km
Su prošvaistėmis ne aukštis 2000 ft
sniegas
Nuo 29 metu 0000 UTC
Vėjas 6 kt iš Vakarų/Šiaurės Vakarų
Matomumas: 10 km
Išsisklaidę debesys ne aukštis 4000 ft

TAF: CYMX 280538Z 2806/2906 26012G22KT P6SM BKN030 TEMPO 2806/2808 5SM -SN BKN020 FM290000 30006KT P6SM SCT040 RMK NXT FCST BY 281200Z

Orai ataskaitas ir orų prognozės (METAR, TAF).

turimą stotys yra geltonos ir raudonos taškus žemėlapyje.

Perkelti pele per norėdami pamatyti stoties vardą.

Tada spustelėkite, norėdami matyti oro stebėjimo ir prognozės.

Norėdami pakeisti žemėlapį: spustelėkite ant žalios mygtukų su juodo kryžiaus žemyn,; žalią mygtuką su brūkšneliu, jei norite nutolinti; arba žalių rodyklių gretimoms žemėlapius.


METAR-TAF: